Bookmark and Share
Track history (hours):
 

Cotes De Bretagne

Last reported at 2014-Apr-17 09:33 UTC. Time now 2014-Apr-17 09:37 UTC.
Position N 47°35' W 003°34'.

Length 75 m; draft 4.2 m.

Type: Dredging. MMSI: 227003850.

NotesDate/timePositionNaut miles runAvg speedWind from/ knotsBaromVisibWave heightAir tempDewpointWater temp
2014-Apr-17 09:33N 47°35' W 003°34'10 9.7
2014-Apr-17 08:34N 47°29' W 003°23'1010.0
2014-Apr-17 07:33N 47°24' W 003°10'9 9.4
2014-Apr-17 06:33N 47°19' W 002°59'9 9.3
2014-Apr-17 05:33N 47°12' W 002°50'10 9.2
2014-Apr-17 04:29N 47°04' W 002°40'20 9.1
2014-Apr-17 02:16N 46°49' W 002°20'7 9.1
2014-Apr-17 01:33N 46°44' W 002°14'10 9.6
2014-Apr-17 00:33N 46°36' W 002°06'10 9.5
2014-Apr-16 23:33N 46°28' W 001°59'10 9.7
2014-Apr-16 22:33N 46°21' W 001°50'10 9.7
2014-Apr-16 21:34N 46°13' W 001°42'4 1.0
2014-Apr-16 17:25N 46°10' W 001°38'1010.9
2014-Apr-16 16:33N 46°18' W 001°44'1110.7
2014-Apr-16 15:33N 46°29' W 001°47'75 4.4
2014-Apr-15 22:33N 47°21' W 003°05'9 9.0
2014-Apr-15 21:33N 47°26' W 003°16'10 9.7
2014-Apr-15 20:33N 47°32' W 003°28'19 1.9
2014-Apr-15 10:33N 47°44' W 003°49'20 9.9
2014-Apr-15 08:34N 47°31' W 003°26'1110.8
2014-Apr-15 07:34N 47°25' W 003°13'6 0.6
2014-Apr-14 20:30N 47°21' W 003°06'910.0
2014-Apr-14 19:34N 47°27' W 003°17'1110.8
2014-Apr-14 18:33N 47°33' W 003°30'3 0.3
2014-Apr-14 08:33N 47°35' W 003°33'10 9.7
2014-Apr-14 07:33N 47°29' W 003°22'18 1.7
2014-Apr-13 21:17N 47°20' W 002°60'810.9
2014-Apr-13 20:31N 47°24' W 003°10'1010.8
2014-Apr-13 19:33N 47°30' W 003°23'1111.3
2014-Apr-13 18:33N 47°36' W 003°37'24 4.1
2014-Apr-13 12:33N 47°51' W 004°06'31 2.8
2014-Apr-13 01:24N 47°33' W 003°29'8 8.9
2014-Apr-13 00:33N 47°28' W 003°20'9 8.2
2014-Apr-12 23:28N 47°23' W 003°09'28 9.1
2014-Apr-12 20:23N 47°10' W 002°32'50 2.9
2014-Apr-12 03:33N 46°27' W 001°57'9 9.4
2014-Apr-12 02:33N 46°19' W 001°50'9 9.2
2014-Apr-12 01:33N 46°11' W 001°42'8 6.6
2014-Apr-12 00:23N 46°05' W 001°36'0 0.1
2014-Apr-11 23:33N 46°05' W 001°35'0 0.1
2014-Apr-11 22:16N 46°05' W 001°36'5 7.2
2014-Apr-11 21:32N 46°10' W 001°39'1111.1
2014-Apr-11 20:33N 46°18' W 001°48'1111.1
2014-Apr-11 19:33N 46°28' W 001°57'1111.0
2014-Apr-11 18:33N 46°37' W 002°07'55 2.2
2014-Apr-10 17:13N 47°19' W 002°57'710.9
2014-Apr-10 16:33N 47°23' W 003°06'1110.8
2014-Apr-10 15:33N 47°32' W 003°14'1110.9
2014-Apr-10 14:33N 47°42' W 003°22'3 0.8
2014-Apr-10 11:24N 47°44' W 003°21'1 0.0
2014-Apr-09 16:30N 47°44' W 003°21'6 6.8
2014-Apr-09 15:33N 47°37' W 003°21'9 8.9
2014-Apr-09 14:33N 47°30' W 003°13'9 8.9
2014-Apr-09 13:33N 47°23' W 003°05'54 9.0
2014-Apr-09 07:31N 46°42' W 002°12'9 9.1
2014-Apr-09 06:33N 46°35' W 002°05'9 9.0
2014-Apr-09 05:33N 46°28' W 001°57'8 8.5
2014-Apr-09 04:33N 46°21' W 001°50'9 8.2
2014-Apr-09 03:30N 46°13' W 001°44'6 1.3
2014-Apr-08 23:12N 46°08' W 001°40'710.1
2014-Apr-08 22:32N 46°14' W 001°45'1010.1
2014-Apr-08 21:33N 46°23' W 001°52'1010.0
2014-Apr-08 20:33N 46°31' W 002°01'1010.0
2014-Apr-08 19:33N 46°39' W 002°09'59 9.9
2014-Apr-08 13:33N 47°24' W 003°06'1110.6
2014-Apr-08 12:33N 47°32' W 003°15'1010.5
2014-Apr-08 11:33N 47°42' W 003°22'3 0.3
2014-Apr-08 03:33N 47°44' W 003°21'0 0.0
2014-Apr-08 01:25N 47°44' W 003°21'0 0.0
2014-Apr-07 23:07N 47°44' W 003°21'0 0.1
2014-Apr-07 20:05N 47°44' W 003°21'0 0.1
2014-Apr-07 15:07N 47°44' W 003°21'0 0.0
2014-Apr-07 14:29N 47°44' W 003°21'0 0.0
2014-Apr-07 13:20N 47°44' W 003°21'0 0.0
2014-Apr-07 12:33N 47°44' W 003°21'0 0.0
2014-Apr-07 11:32N 47°44' W 003°21'1 0.6
2014-Apr-07 10:20N 47°44' W 003°22'6 7.8
2014-Apr-07 09:34N 47°38' W 003°21'  

Dump ship's entire track history

sailing weather and tide predictions

Cotes De Bretagne — FW3973 — position and weather